createdAt,value
2019-03-22T00:00:26.273Z,10.98
2019-03-22T00:03:00.278Z,11.25
2019-03-22T00:05:32.287Z,11.00
2019-03-22T00:08:04.572Z,9.90
2019-03-22T00:10:36.846Z,10.70
2019-03-22T00:13:08.964Z,10.13
2019-03-22T00:15:41.356Z,10.75
2019-03-22T00:18:13.483Z,11.12
2019-03-22T00:20:45.621Z,11.03
2019-03-22T00:23:17.477Z,12.28
2019-03-22T00:25:49.639Z,10.23
2019-03-22T00:28:21.906Z,11.20
2019-03-22T00:30:54.543Z,10.82
2019-03-22T00:33:26.660Z,11.45
2019-03-22T00:35:58.751Z,10.75
2019-03-22T00:38:31.104Z,11.08
2019-03-22T00:41:03.139Z,11.15
2019-03-22T00:43:35.157Z,11.20
2019-03-22T00:46:08.729Z,10.38
2019-03-22T00:48:40.977Z,10.55
2019-03-22T00:51:13.210Z,10.38
2019-03-22T00:53:45.441Z,10.15
2019-03-22T00:56:17.921Z,9.78
2019-03-22T00:58:50.360Z,10.15
2019-03-22T01:01:23.121Z,10.80
2019-03-22T01:03:55.652Z,10.53
2019-03-22T01:06:28.561Z,10.25
2019-03-22T01:09:01.132Z,9.43
2019-03-22T01:11:34.717Z,10.85
2019-03-22T01:14:07.185Z,10.70
2019-03-22T01:16:40.451Z,10.60
2019-03-22T01:19:12.602Z,10.28
2019-03-22T01:21:45.203Z,10.18
2019-03-22T01:24:17.452Z,9.48
2019-03-22T01:26:49.715Z,11.18
2019-03-22T01:29:22.273Z,9.68
2019-03-22T01:31:54.162Z,10.15
2019-03-22T01:34:26.087Z,10.23
2019-03-22T01:36:58.183Z,10.05
2019-03-22T01:39:30.309Z,10.95
2019-03-22T01:42:02.634Z,10.05
2019-03-22T01:44:34.848Z,11.30
2019-03-22T01:47:06.837Z,10.35
2019-03-22T01:49:39.167Z,10.53
2019-03-22T01:52:11.273Z,10.40
2019-03-22T01:54:44.169Z,10.72
2019-03-22T01:57:16.352Z,10.50
2019-03-22T01:59:48.603Z,9.93
2019-03-22T02:02:20.477Z,10.10
2019-03-22T02:04:52.618Z,13.68
2019-03-22T02:07:24.824Z,19.07
2019-03-22T02:09:56.942Z,12.60
2019-03-22T02:12:29.015Z,10.85
2019-03-22T02:15:01.045Z,11.20
2019-03-22T02:17:33.126Z,9.30
2019-03-22T02:20:06.486Z,11.40
2019-03-22T02:22:38.340Z,10.40
2019-03-22T02:25:10.573Z,9.50
2019-03-22T02:27:43.189Z,9.63
2019-03-22T02:30:16.632Z,19.32
2019-03-22T02:32:48.690Z,18.95
2019-03-22T02:35:29.226Z,24.87
2019-03-22T02:37:54.333Z,39.53
2019-03-22T02:40:26.325Z,12.58
2019-03-22T02:42:58.448Z,10.18
2019-03-22T02:45:30.423Z,9.40
2019-03-22T02:48:02.631Z,9.98
2019-03-22T02:50:34.650Z,9.60
2019-03-22T02:53:06.813Z,8.85
2019-03-22T02:55:38.838Z,8.83
2019-03-22T02:58:20.295Z,9.18
2019-03-22T03:00:44.453Z,8.83
2019-03-22T03:03:16.468Z,8.10
2019-03-22T03:05:48.455Z,9.18
2019-03-22T03:08:20.349Z,8.80
2019-03-22T03:10:52.394Z,9.08
2019-03-22T03:13:24.565Z,7.92
2019-03-22T03:15:56.686Z,8.70
2019-03-22T03:18:28.749Z,8.68
2019-03-22T03:21:01.909Z,8.90
2019-03-22T03:23:34.004Z,8.05
2019-03-22T03:26:06.358Z,8.43
2019-03-22T03:28:38.436Z,10.00
2019-03-22T03:31:10.605Z,9.63
2019-03-22T03:33:42.742Z,7.97
2019-03-22T03:36:15.032Z,8.28
2019-03-22T03:38:47.528Z,7.78
2019-03-22T03:41:19.551Z,8.05
2019-03-22T03:43:51.956Z,9.43
2019-03-22T03:46:24.139Z,8.30
2019-03-22T03:48:56.358Z,8.13
2019-03-22T03:51:28.594Z,8.93
2019-03-22T03:54:01.605Z,8.90
2019-03-22T03:56:34.898Z,9.10
2019-03-22T03:59:06.825Z,9.58
2019-03-22T04:01:39.257Z,10.80
2019-03-22T04:04:11.177Z,16.60
2019-03-22T04:06:43.108Z,10.38
2019-03-22T04:09:15.227Z,8.13
2019-03-22T04:11:47.323Z,8.30
2019-03-22T04:14:19.425Z,8.43
2019-03-22T04:16:51.579Z,7.62
2019-03-22T04:19:23.518Z,8.15
2019-03-22T04:21:57.315Z,6.72
2019-03-22T04:24:29.361Z,7.12
2019-03-22T04:27:01.363Z,7.35
2019-03-22T04:29:34.387Z,6.97
2019-03-22T04:32:06.322Z,6.35
2019-03-22T04:34:38.339Z,6.05
2019-03-22T04:37:12.149Z,5.97
2019-03-22T04:39:43.988Z,6.50
2019-03-22T04:42:16.216Z,5.72
2019-03-22T04:44:48.399Z,6.40
2019-03-22T04:47:21.721Z,5.22
2019-03-22T04:49:55.394Z,4.80
2019-03-22T04:52:28.427Z,5.47
2019-03-22T04:55:01.779Z,5.50
2019-03-22T04:57:35.814Z,5.10
2019-03-22T05:00:08.943Z,4.42
2019-03-22T05:02:42.556Z,5.20
2019-03-22T05:05:15.482Z,4.47
2019-03-22T05:07:48.194Z,4.95
2019-03-22T05:10:21.387Z,4.65
2019-03-22T05:12:55.965Z,4.20
2019-03-22T05:15:29.556Z,4.08
2019-03-22T05:18:03.177Z,4.53
2019-03-22T05:20:36.574Z,4.60
2019-03-22T05:23:09.504Z,4.60
2019-03-22T05:25:43.213Z,4.78
2019-03-22T05:28:15.770Z,4.33
2019-03-22T05:31:32.851Z,4.08
2019-03-22T05:34:04.841Z,3.40
2019-03-22T05:36:36.774Z,4.17
2019-03-22T05:39:10.444Z,4.08
2019-03-22T05:41:42.597Z,3.22
2019-03-22T05:44:14.511Z,3.58
2019-03-22T05:46:48.898Z,3.25
2019-03-22T05:49:20.238Z,3.60
2019-03-22T05:51:52.544Z,3.75
2019-03-22T05:54:24.661Z,4.08
2019-03-22T05:56:57.137Z,3.62
2019-03-22T05:59:29.182Z,3.30
2019-03-22T06:02:02.017Z,3.92
2019-03-22T06:04:33.867Z,3.20
2019-03-22T06:07:05.790Z,3.72
2019-03-22T06:09:37.708Z,3.40
2019-03-22T06:12:09.531Z,3.55
2019-03-22T06:14:41.405Z,3.00
2019-03-22T06:17:13.365Z,3.40
2019-03-22T06:19:45.542Z,3.10
2019-03-22T06:22:17.646Z,3.00
2019-03-22T06:24:49.630Z,3.22
2019-03-22T06:27:21.761Z,3.12
2019-03-22T06:29:55.493Z,3.02
2019-03-22T06:32:27.524Z,2.72
2019-03-22T06:34:59.655Z,2.80
2019-03-22T06:37:31.908Z,2.52
2019-03-22T06:40:04.386Z,4.80
2019-03-22T06:42:36.428Z,2.27
2019-03-22T06:45:09.142Z,3.08
2019-03-22T06:47:41.417Z,3.45
2019-03-22T06:50:15.100Z,3.50
2019-03-22T06:52:47.316Z,3.25
2019-03-22T06:55:20.533Z,2.22
2019-03-22T06:57:52.490Z,2.50
2019-03-22T07:00:24.661Z,2.40
2019-03-22T07:02:56.698Z,2.17
2019-03-22T07:05:28.737Z,3.02
2019-03-22T07:08:00.995Z,3.02
2019-03-22T07:10:32.878Z,3.37
2019-03-22T07:13:05.177Z,2.60
2019-03-22T07:15:37.334Z,1.85
2019-03-22T07:18:09.267Z,2.58
2019-03-22T07:20:41.197Z,1.87
2019-03-22T07:23:13.434Z,1.77
2019-03-22T07:25:45.613Z,2.42
2019-03-22T07:28:17.700Z,2.17
2019-03-22T07:30:49.944Z,3.00
2019-03-22T07:33:21.958Z,2.70
2019-03-22T07:35:53.981Z,1.92
2019-03-22T07:38:25.949Z,2.15
2019-03-22T07:40:58.006Z,2.40
2019-03-22T07:43:30.225Z,2.77
2019-03-22T07:46:02.340Z,2.10
2019-03-22T07:48:34.526Z,2.10
2019-03-22T07:51:07.105Z,2.47
2019-03-22T07:53:39.312Z,2.30
2019-03-22T07:56:11.331Z,2.90
2019-03-22T07:58:43.521Z,2.08
2019-03-22T08:01:15.402Z,1.77
2019-03-22T08:03:47.611Z,2.10
2019-03-22T08:06:19.952Z,2.00
2019-03-22T08:08:51.992Z,1.90
2019-03-22T08:11:24.957Z,1.65
2019-03-22T08:13:57.027Z,1.52
2019-03-22T08:16:29.463Z,2.15
2019-03-22T08:19:01.605Z,1.60
2019-03-22T08:21:33.954Z,1.92
2019-03-22T08:24:06.292Z,1.47
2019-03-22T08:26:38.727Z,1.67
2019-03-22T08:29:10.839Z,1.90
2019-03-22T08:31:42.663Z,1.70
2019-03-22T08:34:14.681Z,1.60
2019-03-22T08:36:46.870Z,1.60
2019-03-22T08:39:18.950Z,1.60
2019-03-22T08:41:51.157Z,1.92
2019-03-22T08:44:23.730Z,2.05
2019-03-22T08:46:55.742Z,1.92
2019-03-22T08:49:28.242Z,1.85
2019-03-22T08:52:00.309Z,1.72
2019-03-22T08:54:32.316Z,1.92
2019-03-22T08:57:04.506Z,2.27
2019-03-22T08:59:36.702Z,2.12
2019-03-22T09:02:11.754Z,1.80
2019-03-22T09:04:43.836Z,2.12
2019-03-22T09:07:15.689Z,2.42
2019-03-22T09:09:48.821Z,2.05
2019-03-22T09:12:20.843Z,1.90
2019-03-22T09:14:52.929Z,2.00
2019-03-22T09:17:24.958Z,1.70
2019-03-22T09:19:57.187Z,1.95
2019-03-22T09:22:30.248Z,2.35
2019-03-22T09:25:02.402Z,2.50
2019-03-22T09:27:36.568Z,2.60
2019-03-22T09:30:08.738Z,2.30
2019-03-22T09:32:40.857Z,2.25
2019-03-22T09:35:13.246Z,2.62
2019-03-22T09:37:45.346Z,2.72
2019-03-22T09:40:18.151Z,2.85
2019-03-22T09:42:52.953Z,2.67
2019-03-22T09:45:24.293Z,2.52
2019-03-22T09:47:57.547Z,2.40
2019-03-22T09:50:29.685Z,2.72
2019-03-22T09:53:01.742Z,2.60
2019-03-22T09:55:34.882Z,3.17
2019-03-22T09:58:07.405Z,2.58
2019-03-22T10:00:39.517Z,2.72
2019-03-22T10:03:12.028Z,2.85
2019-03-22T10:05:44.125Z,2.90
2019-03-22T10:08:16.401Z,2.67
2019-03-22T10:10:48.638Z,2.72
2019-03-22T10:13:20.906Z,2.98
2019-03-22T10:15:53.427Z,2.92
2019-03-22T10:18:25.487Z,2.67
2019-03-22T10:20:57.606Z,2.98
2019-03-22T10:23:30.092Z,2.85
2019-03-22T10:26:02.275Z,2.37
2019-03-22T10:28:34.519Z,3.35
2019-03-22T10:31:06.733Z,2.70
2019-03-22T10:33:39.084Z,2.72
2019-03-22T10:36:11.171Z,3.85
2019-03-22T10:38:43.363Z,3.70
2019-03-22T10:41:15.332Z,2.75
2019-03-22T10:43:47.140Z,3.22
2019-03-22T10:46:19.263Z,2.83
2019-03-22T10:48:51.596Z,2.98
2019-03-22T10:51:23.945Z,2.72
2019-03-22T10:53:56.003Z,3.00
2019-03-22T10:56:27.955Z,2.60
2019-03-22T10:58:59.899Z,2.50
2019-03-22T11:01:31.825Z,3.00
2019-03-22T11:06:36.250Z,2.50
2019-03-22T11:09:09.889Z,2.27
2019-03-22T11:11:43.345Z,2.45
2019-03-22T11:14:16.265Z,2.60
2019-03-22T11:16:48.221Z,2.67
2019-03-22T11:19:20.322Z,2.42
2019-03-22T11:21:52.210Z,2.45
2019-03-22T11:24:24.120Z,1.90
2019-03-22T11:26:56.375Z,2.40
2019-03-22T11:29:29.052Z,2.08
2019-03-22T11:32:01.458Z,1.75
2019-03-22T11:34:33.623Z,2.52
2019-03-22T11:37:07.721Z,2.17
2019-03-22T11:39:39.857Z,2.27
2019-03-22T11:42:12.518Z,2.52
2019-03-22T11:44:44.466Z,2.60
2019-03-22T11:47:16.873Z,2.87
2019-03-22T11:49:48.989Z,2.27
2019-03-22T11:52:20.988Z,2.22
2019-03-22T11:54:53.333Z,2.10
2019-03-22T11:57:25.346Z,1.80
2019-03-22T11:59:57.597Z,1.82
2019-03-22T12:02:29.489Z,1.85
2019-03-22T12:05:01.545Z,2.00
2019-03-22T12:07:33.558Z,1.85
2019-03-22T12:10:25.986Z,2.45
2019-03-22T12:12:58.277Z,1.60
2019-03-22T12:15:30.615Z,1.70
2019-03-22T12:18:02.956Z,1.60
2019-03-22T12:20:34.781Z,1.42
2019-03-22T12:23:06.636Z,1.65
2019-03-22T12:25:38.853Z,1.32
2019-03-22T12:28:11.046Z,1.40
2019-03-22T12:30:43.218Z,1.15
2019-03-22T12:33:15.229Z,1.50
2019-03-22T12:35:47.204Z,1.12
2019-03-22T12:38:19.383Z,1.42
2019-03-22T12:40:51.271Z,1.12
2019-03-22T12:43:23.404Z,1.30
2019-03-22T12:45:55.785Z,1.27
2019-03-22T12:48:27.904Z,1.57
2019-03-22T12:51:00.062Z,2.58
2019-03-22T12:53:32.691Z,2.12
2019-03-22T12:56:04.666Z,1.57
2019-03-22T12:58:36.600Z,1.50
2019-03-22T13:01:10.238Z,1.50
2019-03-22T13:03:42.622Z,2.10
2019-03-22T13:06:14.806Z,1.52
2019-03-22T13:08:46.774Z,1.67
2019-03-22T13:11:18.931Z,1.72
2019-03-22T13:13:51.244Z,1.75
2019-03-22T13:16:23.492Z,1.98
2019-03-22T13:18:55.549Z,1.57
2019-03-22T13:21:29.879Z,1.90
2019-03-22T13:24:02.047Z,2.20
2019-03-22T13:26:34.086Z,2.10
2019-03-22T13:29:06.032Z,1.80
2019-03-22T13:31:38.243Z,1.98
2019-03-22T13:34:10.390Z,2.30
2019-03-22T13:36:42.313Z,1.80
2019-03-22T13:39:14.898Z,2.25
2019-03-22T13:41:47.095Z,2.33
2019-03-22T13:44:19.255Z,2.42
2019-03-22T13:46:51.284Z,3.50
2019-03-22T13:49:23.489Z,2.65
2019-03-22T13:51:55.976Z,2.47
2019-03-22T13:54:28.078Z,2.58
2019-03-22T13:57:00.286Z,2.50
2019-03-22T13:59:32.249Z,3.55
2019-03-22T14:02:04.366Z,3.60
2019-03-22T14:04:36.365Z,2.72
2019-03-22T14:07:08.530Z,2.65
2019-03-22T14:09:40.717Z,2.92
2019-03-22T14:12:12.707Z,3.12
2019-03-22T14:14:44.834Z,2.80
2019-03-22T14:17:16.881Z,2.72
2019-03-22T14:19:49.167Z,2.05
2019-03-22T14:22:21.353Z,2.47
2019-03-22T14:24:53.745Z,2.10
2019-03-22T14:27:25.977Z,2.47
2019-03-22T14:29:57.929Z,2.52
2019-03-22T14:32:30.254Z,4.50
2019-03-22T14:35:02.217Z,3.40
2019-03-22T14:37:34.462Z,2.40
2019-03-22T14:40:07.193Z,2.77
2019-03-22T14:42:40.112Z,2.20
2019-03-22T14:45:12.619Z,2.33
2019-03-22T14:47:44.843Z,2.60
2019-03-22T14:50:17.226Z,3.67
2019-03-22T14:52:49.425Z,3.70
2019-03-22T14:55:21.686Z,3.60
2019-03-22T14:57:53.720Z,3.40
2019-03-22T15:00:26.250Z,3.10
2019-03-22T15:02:58.593Z,3.10
2019-03-22T15:05:31.087Z,3.55
2019-03-22T15:08:03.758Z,3.72
2019-03-22T15:10:35.738Z,3.85
2019-03-22T15:13:08.282Z,3.67
2019-03-22T15:15:42.299Z,3.42
2019-03-22T15:18:16.625Z,3.50
2019-03-22T15:20:56.330Z,5.58
2019-03-22T15:23:32.911Z,4.42
2019-03-22T15:26:15.689Z,3.70
2019-03-22T15:28:49.577Z,4.53
2019-03-22T15:31:25.993Z,4.17
2019-03-22T15:34:11.860Z,6.75
2019-03-22T15:36:57.408Z,16.67
2019-03-22T15:42:06.769Z,21.50
2019-03-22T15:44:39.200Z,14.38
2019-03-22T15:47:11.804Z,7.78
2019-03-22T15:49:43.942Z,5.20
2019-03-22T15:52:16.376Z,6.33
2019-03-22T15:54:48.336Z,9.93
2019-03-22T15:57:20.467Z,8.78
2019-03-22T15:59:53.717Z,25.68
2019-03-22T16:02:26.047Z,99.20
2019-03-22T16:07:28.674Z,61.13
2019-03-22T16:10:00.813Z,118.08
2019-03-22T16:12:32.736Z,89.47
2019-03-22T16:15:05.720Z,74.22
2019-03-22T16:17:37.946Z,58.13
2019-03-22T16:20:11.350Z,27.22
2019-03-22T16:22:44.201Z,12.65
2019-03-22T16:25:16.645Z,8.28
2019-03-22T17:40:18.150Z,53.87
2019-03-22T17:42:50.382Z,36.20
2019-03-22T17:45:22.808Z,26.60
2019-03-22T17:47:54.912Z,22.80
2019-03-22T17:50:27.025Z,27.40
2019-03-22T17:52:59.498Z,23.87
2019-03-22T17:55:31.478Z,17.57
2019-03-22T17:58:03.799Z,13.32
2019-03-22T18:00:36.138Z,13.00
2019-03-22T18:03:08.356Z,11.53
2019-03-22T18:05:40.680Z,12.30
2019-03-22T18:08:12.844Z,12.58
2019-03-22T18:10:44.869Z,12.98
2019-03-22T18:13:17.090Z,12.75
2019-03-22T18:15:49.522Z,12.93
2019-03-22T18:18:22.086Z,13.05
2019-03-22T18:20:54.498Z,11.95
2019-03-22T18:23:35.504Z,13.55
2019-03-22T18:26:00.741Z,13.93
2019-03-22T18:28:33.132Z,16.32
2019-03-22T18:31:05.328Z,30.10
2019-03-22T18:33:37.448Z,62.40
2019-03-22T18:36:09.631Z,88.85
2019-03-22T18:38:41.895Z,89.83
2019-03-22T18:41:14.400Z,81.25
2019-03-22T18:43:46.805Z,29.32
2019-03-22T18:46:19.011Z,37.80
2019-03-22T18:48:51.401Z,26.60
2019-03-22T18:51:23.712Z,24.65
2019-03-22T18:53:56.070Z,19.45
2019-03-22T18:56:28.306Z,17.27
2019-03-22T18:59:00.754Z,21.20
2019-03-22T19:01:32.612Z,19.75
2019-03-22T19:04:04.818Z,23.57
2019-03-22T19:06:37.439Z,21.10
2019-03-22T19:09:09.983Z,24.15
2019-03-22T19:11:42.347Z,23.40
2019-03-22T19:14:14.721Z,24.45
2019-03-22T19:16:46.581Z,27.15
2019-03-22T19:19:20.079Z,30.52
2019-03-22T19:22:02.405Z,38.78
2019-03-22T19:24:34.478Z,39.38
2019-03-22T19:27:06.605Z,30.88
2019-03-22T19:29:38.800Z,26.17
2019-03-22T19:32:13.805Z,23.35
2019-03-22T19:34:53.892Z,19.12
2019-03-22T19:37:19.567Z,15.95
2019-03-22T19:39:51.697Z,34.55
2019-03-22T19:42:25.670Z,58.23
2019-03-22T19:44:57.913Z,57.65
2019-03-22T19:47:30.009Z,78.15
2019-03-22T19:50:02.336Z,61.85
2019-03-22T19:52:34.879Z,66.20
2019-03-22T19:55:07.797Z,47.10
2019-03-22T19:57:40.145Z,39.80
2019-03-22T20:00:12.586Z,37.33
2019-03-22T20:02:45.073Z,42.08
2019-03-22T20:05:37.692Z,44.77
2019-03-22T20:08:13.666Z,42.00
2019-03-22T20:10:43.447Z,46.18
2019-03-22T20:13:15.570Z,54.45
2019-03-22T20:15:48.273Z,57.25
2019-03-22T20:18:20.642Z,54.03
2019-03-22T20:20:53.051Z,31.15
2019-03-22T20:23:25.237Z,25.32
2019-03-22T20:25:57.216Z,31.55
2019-03-22T20:28:29.500Z,21.52
2019-03-22T20:31:01.842Z,39.20
2019-03-22T20:33:33.864Z,87.27
2019-03-22T20:36:07.515Z,61.55
2019-03-22T20:38:40.154Z,60.63
2019-03-22T20:41:12.507Z,51.35
2019-03-22T20:43:44.694Z,69.58
2019-03-22T20:46:16.929Z,36.48
2019-03-22T20:48:49.124Z,31.82
2019-03-22T20:51:21.182Z,27.62
2019-03-22T20:53:53.487Z,29.50
2019-03-22T20:56:25.388Z,26.95
2019-03-22T20:58:57.428Z,30.95
2019-03-22T21:01:29.758Z,29.72
2019-03-22T21:04:01.909Z,30.52
2019-03-22T21:06:34.128Z,25.35
2019-03-22T21:09:07.408Z,24.75
2019-03-22T21:11:39.797Z,22.77
2019-03-22T21:14:11.972Z,20.97
2019-03-22T21:16:43.965Z,19.62
2019-03-22T21:19:16.340Z,21.02
2019-03-22T21:21:48.375Z,23.38
2019-03-22T21:24:20.477Z,30.08
2019-03-22T21:26:52.645Z,52.83
2019-03-22T21:29:25.178Z,50.92
2019-03-22T21:31:57.173Z,63.83
2019-03-22T21:34:30.487Z,76.95
2019-03-22T21:37:02.639Z,62.83
2019-03-22T21:39:34.907Z,59.48
2019-03-22T21:42:07.365Z,41.50
2019-03-22T21:44:39.942Z,48.70
2019-03-22T21:47:11.888Z,66.85
2019-03-22T21:49:44.010Z,61.23
2019-03-22T21:52:16.052Z,57.30
2019-03-22T21:54:48.298Z,67.80
2019-03-22T21:57:20.461Z,61.75
2019-03-22T21:59:53.689Z,67.35
2019-03-22T22:02:25.853Z,64.72
2019-03-22T22:04:58.010Z,48.17
2019-03-22T22:07:30.126Z,54.53
2019-03-22T22:10:02.041Z,49.45
2019-03-22T22:12:34.996Z,48.23
2019-03-22T22:15:12.088Z,28.15
2019-03-22T22:17:45.763Z,24.50
2019-03-22T22:20:28.445Z,20.02
2019-03-22T22:22:52.155Z,19.98
2019-03-22T22:25:24.395Z,30.68
2019-03-22T22:27:56.628Z,27.13
2019-03-22T22:30:28.877Z,26.95
2019-03-22T22:33:01.301Z,21.48
2019-03-22T22:35:33.412Z,16.48
2019-03-22T22:38:05.804Z,26.23
2019-03-22T22:40:38.039Z,26.68
2019-03-22T22:43:10.453Z,24.65
2019-03-22T22:45:42.467Z,22.32
2019-03-22T22:48:14.471Z,19.92
2019-03-22T22:50:46.843Z,21.07
2019-03-22T22:53:20.634Z,22.67
2019-03-22T22:55:52.880Z,22.58
2019-03-22T22:58:24.963Z,25.32
2019-03-22T23:00:57.339Z,30.55
2019-03-22T23:03:31.223Z,22.70
2019-03-22T23:06:09.396Z,19.65
2019-03-22T23:08:37.447Z,20.35
2019-03-22T23:11:09.975Z,16.67
2019-03-22T23:13:42.013Z,17.42
2019-03-22T23:16:14.064Z,17.07
2019-03-22T23:18:46.154Z,17.35
2019-03-22T23:21:18.366Z,20.90
2019-03-22T23:23:50.535Z,23.18
2019-03-22T23:26:22.601Z,24.77
2019-03-22T23:41:28.518Z,27.15
2019-03-22T23:44:00.778Z,55.78
2019-03-22T23:46:33.296Z,38.35
2019-03-22T23:49:05.619Z,26.02
2019-03-22T23:51:38.948Z,28.62
2019-03-22T23:54:11.414Z,25.72
2019-03-22T23:56:43.570Z,22.93
2019-03-22T23:59:15.683Z,21.33
